createdAt,value
2019-06-20T00:00:42.491Z,59.13
2019-06-20T00:03:13.627Z,59.37
2019-06-20T00:05:44.790Z,59.47
2019-06-20T00:08:15.878Z,59.67
2019-06-20T00:10:47.040Z,59.58
2019-06-20T00:13:18.130Z,59.67
2019-06-20T00:15:49.382Z,59.81
2019-06-20T00:18:20.498Z,59.65
2019-06-20T00:20:52.031Z,60.63
2019-06-20T00:23:23.137Z,60.93
2019-06-20T00:25:54.293Z,60.35
2019-06-20T00:28:25.385Z,60.10
2019-06-20T00:30:56.532Z,60.53
2019-06-20T00:33:27.616Z,60.85
2019-06-20T00:35:58.748Z,60.80
2019-06-20T00:38:29.839Z,60.96
2019-06-20T00:41:00.998Z,61.01
2019-06-20T00:43:32.078Z,61.25
2019-06-20T00:46:03.267Z,61.74
2019-06-20T00:48:34.427Z,62.18
2019-06-20T00:51:05.597Z,61.63
2019-06-20T00:53:36.704Z,61.85
2019-06-20T00:56:07.872Z,61.81
2019-06-20T00:58:39.041Z,62.16
2019-06-20T01:01:10.149Z,62.31
2019-06-20T01:03:41.750Z,62.79
2019-06-20T01:06:12.894Z,62.54
2019-06-20T01:08:43.993Z,62.54
2019-06-20T01:11:15.150Z,62.98
2019-06-20T01:13:46.372Z,62.72
2019-06-20T01:16:17.683Z,63.01
2019-06-20T01:18:49.388Z,62.84
2019-06-20T01:21:20.553Z,62.77
2019-06-20T01:23:51.658Z,63.00
2019-06-20T01:26:22.794Z,63.19
2019-06-20T01:28:53.883Z,63.29
2019-06-20T01:31:25.031Z,63.33
2019-06-20T01:33:56.132Z,63.54
2019-06-20T01:36:27.277Z,63.64
2019-06-20T01:38:58.380Z,64.00
2019-06-20T01:41:29.514Z,64.07
2019-06-20T01:44:00.634Z,64.41
2019-06-20T01:46:32.199Z,64.58
2019-06-20T01:49:03.290Z,64.58
2019-06-20T01:51:34.558Z,64.62
2019-06-20T01:54:05.670Z,64.43
2019-06-20T01:56:36.792Z,64.11
2019-06-20T01:59:07.885Z,64.09
2019-06-20T02:01:39.040Z,64.24
2019-06-20T02:04:10.134Z,64.22
2019-06-20T02:06:41.384Z,65.04
2019-06-20T02:09:12.486Z,64.23
2019-06-20T02:11:43.744Z,64.27
2019-06-20T02:14:14.868Z,64.14
2019-06-20T02:16:46.565Z,63.99
2019-06-20T02:19:17.676Z,63.75
2019-06-20T02:21:48.852Z,63.88
2019-06-20T02:24:19.940Z,63.91
2019-06-20T02:26:51.101Z,63.95
2019-06-20T02:29:22.187Z,63.77
2019-06-20T02:31:53.335Z,64.01
2019-06-20T02:34:24.436Z,64.07
2019-06-20T02:36:55.600Z,63.58
2019-06-20T02:39:26.693Z,64.09
2019-06-20T02:41:57.895Z,64.13
2019-06-20T02:44:30.824Z,64.67
2019-06-20T02:47:01.949Z,64.48
2019-06-20T02:49:33.050Z,65.29
2019-06-20T02:52:05.098Z,65.36
2019-06-20T02:54:36.195Z,65.72
2019-06-20T02:57:07.371Z,65.79
2019-06-20T02:59:38.420Z,65.80
2019-06-20T03:02:09.558Z,66.30
2019-06-20T03:04:40.643Z,66.00
2019-06-20T03:07:11.806Z,66.48
2019-06-20T03:09:42.894Z,66.08
2019-06-20T03:12:14.022Z,66.53
2019-06-20T03:14:45.943Z,66.46
2019-06-20T03:17:17.587Z,65.65
2019-06-20T03:19:48.678Z,66.22
2019-06-20T03:22:19.860Z,65.88
2019-06-20T03:24:51.003Z,66.48
2019-06-20T03:27:22.111Z,66.59
2019-06-20T03:29:53.192Z,66.86
2019-06-20T03:32:24.380Z,66.95
2019-06-20T03:34:55.475Z,67.11
2019-06-20T03:37:26.714Z,67.07
2019-06-20T03:39:57.752Z,67.27
2019-06-20T03:42:29.124Z,67.94
2019-06-20T03:45:02.402Z,68.35
2019-06-20T03:47:32.983Z,67.78
2019-06-20T03:50:07.549Z,68.05
2019-06-20T03:52:38.701Z,68.12
2019-06-20T03:55:10.402Z,68.09
2019-06-20T03:57:41.565Z,67.14
2019-06-20T04:00:13.063Z,67.30
2019-06-20T04:02:44.625Z,67.17
2019-06-20T04:05:15.820Z,67.01
2019-06-20T04:07:46.967Z,67.79
2019-06-20T04:10:18.065Z,67.66
2019-06-20T04:12:49.240Z,66.93
2019-06-20T04:15:20.323Z,66.24
2019-06-20T04:17:52.011Z,65.83
2019-06-20T04:20:23.153Z,66.18
2019-06-20T04:22:54.332Z,65.50
2019-06-20T04:25:25.459Z,65.83
2019-06-20T04:27:56.617Z,64.56
2019-06-20T04:30:27.744Z,64.14
2019-06-20T04:32:58.870Z,63.88
2019-06-20T04:35:29.966Z,63.72
2019-06-20T04:38:01.145Z,63.95
2019-06-20T04:40:32.221Z,63.87
2019-06-20T04:43:03.412Z,62.52
2019-06-20T04:45:42.033Z,61.55
2019-06-20T04:48:13.637Z,61.19
2019-06-20T04:50:44.809Z,61.18
2019-06-20T04:53:15.912Z,60.59
2019-06-20T04:55:47.021Z,59.63
2019-06-20T04:58:18.175Z,57.88
2019-06-20T05:00:49.482Z,54.90
2019-06-20T05:03:20.636Z,55.80
2019-06-20T05:05:51.718Z,55.91
2019-06-20T05:08:22.861Z,55.33
2019-06-20T05:10:54.154Z,53.46
2019-06-20T05:13:25.305Z,52.34
2019-06-20T05:15:56.406Z,50.92
2019-06-20T05:18:27.546Z,50.06
2019-06-20T05:20:58.682Z,50.27
2019-06-20T05:23:29.806Z,51.22
2019-06-20T05:26:00.936Z,50.60
2019-06-20T05:28:33.252Z,50.30
2019-06-20T05:31:04.447Z,50.52
2019-06-20T05:33:35.536Z,49.96
2019-06-20T05:36:06.635Z,50.30
2019-06-20T05:38:37.745Z,50.12
2019-06-20T05:41:08.838Z,49.68
2019-06-20T05:43:39.951Z,49.78
2019-06-20T05:46:11.306Z,49.49
2019-06-20T05:48:43.336Z,49.33
2019-06-20T05:51:14.436Z,48.39
2019-06-20T05:53:45.554Z,48.30
2019-06-20T05:56:16.628Z,48.41
2019-06-20T05:58:47.758Z,48.22
2019-06-20T06:01:18.838Z,48.03
2019-06-20T06:03:49.951Z,47.79
2019-06-20T06:06:21.027Z,47.33
2019-06-20T06:08:52.135Z,47.70
2019-06-20T06:11:23.229Z,47.25
2019-06-20T06:13:54.332Z,47.18
2019-06-20T06:16:28.244Z,47.30
2019-06-20T06:18:58.191Z,46.74
2019-06-20T06:21:29.331Z,46.79
2019-06-20T06:24:00.469Z,46.43
2019-06-20T06:26:31.744Z,46.26
2019-06-20T06:29:03.274Z,46.89
2019-06-20T06:31:34.348Z,46.60
2019-06-20T06:34:05.654Z,46.73
2019-06-20T06:36:36.747Z,46.74
2019-06-20T06:39:11.663Z,45.53
2019-06-20T06:41:42.740Z,45.54
2019-06-20T06:44:13.883Z,45.04
2019-06-20T06:46:53.155Z,43.34
2019-06-20T06:49:17.733Z,43.34
2019-06-20T06:51:48.840Z,44.16
2019-06-20T06:54:19.948Z,43.96
2019-06-20T06:56:51.030Z,43.10
2019-06-20T06:59:22.296Z,42.81
2019-06-20T07:01:53.321Z,42.66
2019-06-20T07:04:24.434Z,41.78
2019-06-20T07:06:55.528Z,42.14
2019-06-20T07:09:26.651Z,41.61
2019-06-20T07:11:57.748Z,41.39
2019-06-20T07:14:29.308Z,41.37
2019-06-20T07:17:00.907Z,40.96
2019-06-20T07:19:32.135Z,40.53
2019-06-20T07:22:03.258Z,40.18
2019-06-20T07:24:34.373Z,39.79
2019-06-20T07:27:05.458Z,39.44
2019-06-20T07:29:36.599Z,39.22
2019-06-20T07:32:07.681Z,38.86
2019-06-20T07:34:38.841Z,38.96
2019-06-20T07:37:09.973Z,38.86
2019-06-20T07:39:41.090Z,38.12
2019-06-20T07:42:12.187Z,37.54
2019-06-20T07:44:43.418Z,37.42
2019-06-20T07:47:17.966Z,36.86
2019-06-20T07:49:47.260Z,37.42
2019-06-20T07:52:18.374Z,35.99
2019-06-20T07:54:49.513Z,35.93
2019-06-20T07:57:20.612Z,35.54
2019-06-20T07:59:51.737Z,34.95
2019-06-20T08:02:22.833Z,34.73
2019-06-20T08:04:53.944Z,34.69
2019-06-20T08:07:25.042Z,34.66
2019-06-20T08:09:56.175Z,35.57
2019-06-20T08:12:27.351Z,34.62
2019-06-20T08:15:13.971Z,33.97
2019-06-20T08:17:35.588Z,34.01
2019-06-20T08:20:09.593Z,34.09
2019-06-20T08:22:41.318Z,33.80
2019-06-20T08:25:14.369Z,33.62
2019-06-20T08:27:57.140Z,34.01
2019-06-20T08:30:36.492Z,34.15
2019-06-20T08:33:12.005Z,34.79
2019-06-20T08:35:42.300Z,34.09
2019-06-20T08:38:13.394Z,34.28
2019-06-20T08:40:44.620Z,34.27
2019-06-20T08:43:15.814Z,34.25
2019-06-20T08:45:47.063Z,33.23
2019-06-20T08:48:18.201Z,33.03
2019-06-20T08:50:49.351Z,33.20
2019-06-20T08:53:20.433Z,33.64
2019-06-20T08:55:51.538Z,33.70
2019-06-20T08:58:23.066Z,33.58
2019-06-20T09:00:55.871Z,32.40
2019-06-20T09:03:26.930Z,31.11
2019-06-20T09:05:58.267Z,31.65
2019-06-20T09:08:29.607Z,32.28
2019-06-20T09:11:01.818Z,31.73
2019-06-20T09:13:32.936Z,31.96
2019-06-20T09:16:04.172Z,31.01
2019-06-20T09:18:39.801Z,31.00
2019-06-20T09:21:10.928Z,31.37
2019-06-20T09:23:42.098Z,32.07
2019-06-20T09:26:13.239Z,31.77
2019-06-20T09:28:44.335Z,31.79
2019-06-20T09:31:15.443Z,31.20
2019-06-20T09:33:46.527Z,30.91
2019-06-20T09:36:17.856Z,30.98
2019-06-20T09:38:49.103Z,30.88
2019-06-20T09:41:20.211Z,31.04
2019-06-20T09:43:52.763Z,31.58
2019-06-20T09:46:23.937Z,32.02
2019-06-20T09:48:55.605Z,32.05
2019-06-20T09:51:26.834Z,31.51
2019-06-20T09:53:58.222Z,31.72
2019-06-20T09:56:29.478Z,31.73
2019-06-20T09:59:00.572Z,32.34
2019-06-20T10:01:31.884Z,31.98
2019-06-20T10:04:03.063Z,32.39
2019-06-20T10:06:34.323Z,32.68
2019-06-20T10:09:08.568Z,32.95
2019-06-20T10:11:39.684Z,33.50
2019-06-20T10:14:10.766Z,32.97
2019-06-20T10:16:45.682Z,33.09
2019-06-20T10:19:14.569Z,33.64
2019-06-20T10:21:46.752Z,33.18
2019-06-20T10:24:18.412Z,32.97
2019-06-20T10:26:49.635Z,32.85
2019-06-20T10:29:22.169Z,32.62
2019-06-20T10:31:53.296Z,32.63
2019-06-20T10:34:24.393Z,32.02
2019-06-20T10:36:56.985Z,32.26
2019-06-20T10:39:28.210Z,32.30
2019-06-20T10:41:59.356Z,32.21
2019-06-20T10:44:30.532Z,31.76
2019-06-20T10:47:01.702Z,31.73
2019-06-20T10:49:32.779Z,31.42
2019-06-20T10:52:04.349Z,32.65
2019-06-20T10:54:37.007Z,32.38
2019-06-20T10:57:08.486Z,32.58
2019-06-20T10:59:39.877Z,32.27
2019-06-20T11:02:12.221Z,31.72
2019-06-20T11:04:44.061Z,32.17
2019-06-20T11:07:15.352Z,31.54
2019-06-20T11:09:47.133Z,31.05
2019-06-20T11:12:18.394Z,31.34
2019-06-20T11:14:49.466Z,30.61
2019-06-20T11:17:20.914Z,30.72
2019-06-20T11:19:52.000Z,31.04
2019-06-20T11:22:23.163Z,30.90
2019-06-20T11:24:54.249Z,32.04
2019-06-20T11:27:25.400Z,31.81
2019-06-20T11:29:56.491Z,32.44
2019-06-20T11:32:27.627Z,32.28
2019-06-20T11:34:58.714Z,32.48
2019-06-20T11:37:29.855Z,32.66
2019-06-20T11:40:00.927Z,33.23
2019-06-20T11:42:32.071Z,32.99
2019-06-20T11:45:03.164Z,33.42
2019-06-20T11:47:35.482Z,33.22
2019-06-20T11:50:10.377Z,32.27
2019-06-20T11:52:45.355Z,31.29
2019-06-20T11:55:15.329Z,31.57
2019-06-20T11:57:46.471Z,31.75
2019-06-20T12:00:18.083Z,31.97
2019-06-20T12:02:50.275Z,31.90
2019-06-20T12:05:23.355Z,33.02
2019-06-20T12:07:54.628Z,32.65
2019-06-20T12:10:25.707Z,31.54
2019-06-20T12:12:57.536Z,31.32
2019-06-20T12:15:28.737Z,31.44
2019-06-20T12:18:00.249Z,31.32
2019-06-20T12:20:31.334Z,31.72
2019-06-20T12:23:02.501Z,31.60
2019-06-20T12:25:33.597Z,31.48
2019-06-20T12:28:04.812Z,31.35
2019-06-20T12:30:35.932Z,31.58
2019-06-20T12:33:07.071Z,32.37
2019-06-20T12:35:39.525Z,32.95
2019-06-20T12:38:15.054Z,32.79
2019-06-20T12:40:46.923Z,33.00
2019-06-20T12:43:18.911Z,32.42
2019-06-20T12:45:51.716Z,32.53
2019-06-20T12:48:23.698Z,31.84
2019-06-20T12:50:55.878Z,31.59
2019-06-20T12:53:29.838Z,31.85
2019-06-20T12:56:01.528Z,31.96
2019-06-20T12:58:37.344Z,31.79
2019-06-20T13:01:10.527Z,31.34
2019-06-20T13:03:42.813Z,31.16
2019-06-20T13:06:14.713Z,31.31
2019-06-20T13:08:47.416Z,31.16
2019-06-20T13:11:22.997Z,31.67
2019-06-20T13:13:54.734Z,31.34
2019-06-20T13:16:31.460Z,31.85
2019-06-20T13:19:02.960Z,31.66
2019-06-20T13:21:35.011Z,31.19
2019-06-20T13:24:07.036Z,30.97
2019-06-20T13:26:40.661Z,30.67
2019-06-20T13:29:12.997Z,29.88
2019-06-20T13:32:00.539Z,30.17
2019-06-20T13:34:20.831Z,30.27
2019-06-20T13:36:54.607Z,30.26
2019-06-20T13:39:27.145Z,29.52
2019-06-20T13:42:06.953Z,28.45
2019-06-20T13:44:42.581Z,28.60
2019-06-20T13:47:15.817Z,29.34
2019-06-20T13:49:48.268Z,29.81
2019-06-20T13:52:20.823Z,30.42
2019-06-20T13:54:52.516Z,30.64
2019-06-20T13:57:24.423Z,31.28
2019-06-20T13:59:56.623Z,31.01
2019-06-20T14:02:28.753Z,30.27
2019-06-20T14:05:01.490Z,30.71
2019-06-20T14:07:33.340Z,30.47
2019-06-20T14:10:07.593Z,31.19
2019-06-20T14:12:44.653Z,31.59
2019-06-20T14:15:18.217Z,31.28
2019-06-20T14:17:50.231Z,31.66
2019-06-20T14:20:23.425Z,31.76
2019-06-20T14:22:54.925Z,32.26
2019-06-20T14:25:26.557Z,32.38
2019-06-20T14:27:57.931Z,32.29
2019-06-20T14:30:31.680Z,32.21
2019-06-20T14:33:03.393Z,32.04
2019-06-20T14:35:35.062Z,32.15
2019-06-20T14:38:06.130Z,32.14
2019-06-20T14:40:37.676Z,32.71
2019-06-20T14:43:08.862Z,32.25
2019-06-20T14:45:40.009Z,32.71
2019-06-20T14:48:11.117Z,33.60
2019-06-20T14:50:43.796Z,36.33
2019-06-20T14:53:15.079Z,38.07
2019-06-20T14:55:49.775Z,41.15
2019-06-20T14:58:24.766Z,49.59
2019-06-20T15:00:57.396Z,54.62
2019-06-20T15:03:32.937Z,56.07
2019-06-20T15:06:11.612Z,61.77
2019-06-20T15:09:03.452Z,64.17
2019-06-20T15:11:30.142Z,67.27
2019-06-20T15:14:02.362Z,67.92
2019-06-20T15:16:34.204Z,68.35
2019-06-20T15:19:07.007Z,70.39
2019-06-20T15:21:40.652Z,70.39
2019-06-20T15:24:12.944Z,71.89
2019-06-20T15:26:45.849Z,67.99
2019-06-20T15:29:18.298Z,72.42
2019-06-20T15:31:53.118Z,70.97
2019-06-20T15:37:48.468Z,68.15
2019-06-20T15:40:25.527Z,70.50
2019-06-20T15:42:58.919Z,70.04
2019-06-20T15:45:30.777Z,71.31
2019-06-20T15:48:02.553Z,68.14
2019-06-20T15:50:35.236Z,70.73
2019-06-20T15:53:08.153Z,69.02
2019-06-20T15:55:42.980Z,69.12
2019-06-20T15:58:16.430Z,68.95
2019-06-20T16:00:48.394Z,68.65
2019-06-20T16:03:24.043Z,67.00
2019-06-20T16:05:57.679Z,67.84
2019-06-20T16:08:31.740Z,66.53
2019-06-20T16:11:06.196Z,63.61
2019-06-20T16:13:40.645Z,63.59
2019-06-20T16:16:12.989Z,62.21
2019-06-20T16:18:45.515Z,60.62
2019-06-20T16:21:16.854Z,59.13
2019-06-20T16:23:48.543Z,57.54
2019-06-20T16:26:19.895Z,57.13
2019-06-20T16:28:52.449Z,57.88
2019-06-20T16:31:27.064Z,59.25
2019-06-20T16:33:58.247Z,63.59
2019-06-20T16:36:30.167Z,63.47
2019-06-20T16:39:02.324Z,62.43
2019-06-20T16:41:33.565Z,59.67
2019-06-20T16:44:06.050Z,60.19
2019-06-20T16:46:37.329Z,60.07
2019-06-20T16:49:09.501Z,58.99
2019-06-20T16:51:43.172Z,59.11
2019-06-20T16:54:15.497Z,59.41
2019-06-20T16:56:49.776Z,58.94
2019-06-20T16:59:23.160Z,60.33
2019-06-20T17:01:54.392Z,57.89
2019-06-20T17:04:27.877Z,57.59
2019-06-20T17:06:59.434Z,56.02
2019-06-20T17:09:30.974Z,56.02
2019-06-20T17:12:02.083Z,57.84
2019-06-20T17:14:33.328Z,55.81
2019-06-20T17:17:04.512Z,56.85
2019-06-20T17:19:36.411Z,57.81
2019-06-20T17:22:07.899Z,58.21
2019-06-20T17:24:39.508Z,55.26
2019-06-20T17:27:10.775Z,55.26
2019-06-20T17:29:42.319Z,57.01
2019-06-20T17:32:14.443Z,56.35
2019-06-20T17:34:45.966Z,56.35
2019-06-20T17:37:17.511Z,54.92
2019-06-20T17:39:48.796Z,56.37
2019-06-20T17:42:19.889Z,53.16
2019-06-20T17:44:51.267Z,54.06
2019-06-20T17:47:22.634Z,54.06
2019-06-20T17:49:54.058Z,53.76
2019-06-20T17:52:25.655Z,55.97
2019-06-20T17:54:57.108Z,50.62
2019-06-20T17:57:29.183Z,52.30
2019-06-20T18:00:00.747Z,50.82
2019-06-20T18:02:32.416Z,49.52
2019-06-20T18:05:04.295Z,49.52
2019-06-20T18:07:35.454Z,47.83
2019-06-20T18:10:10.785Z,50.35
2019-06-20T18:12:42.023Z,49.58
2019-06-20T18:15:14.273Z,49.96
2019-06-20T18:17:45.373Z,45.42
2019-06-20T18:20:17.439Z,45.42
2019-06-20T18:22:48.710Z,46.46
2019-06-20T18:27:08.028Z,45.72
2019-06-20T18:30:53.710Z,46.50
2019-06-20T18:33:24.821Z,45.12
2019-06-20T18:35:56.144Z,43.33
2019-06-20T18:38:27.476Z,43.33
2019-06-20T18:40:58.819Z,44.09
2019-06-20T18:43:29.921Z,44.32
2019-06-20T18:46:01.476Z,46.06
2019-06-20T18:48:33.109Z,46.06
2019-06-20T18:51:06.824Z,48.06
2019-06-20T18:53:38.157Z,50.69
2019-06-20T18:56:11.150Z,52.49
2019-06-20T18:58:42.319Z,53.14
2019-06-20T19:01:13.954Z,54.09
2019-06-20T19:03:46.159Z,54.35
2019-06-20T19:06:18.080Z,55.03
2019-06-20T19:08:49.179Z,54.83
2019-06-20T19:11:20.441Z,55.09
2019-06-20T19:17:00.939Z,56.58
2019-06-20T19:19:46.827Z,58.24
2019-06-20T19:25:22.435Z,60.95
2019-06-20T19:27:54.487Z,58.28
2019-06-20T19:30:42.637Z,56.77
2019-06-20T19:33:14.083Z,57.04
2019-06-20T19:35:45.532Z,56.97
2019-06-20T19:38:18.136Z,59.47
2019-06-20T19:40:51.151Z,60.05
2019-06-20T19:43:25.807Z,60.44
2019-06-20T19:45:58.552Z,59.97
2019-06-20T19:48:30.362Z,61.69
2019-06-20T19:51:02.543Z,61.10
2019-06-20T19:53:34.476Z,61.71
2019-06-20T19:56:06.837Z,62.24
2019-06-20T19:58:38.565Z,62.01
2019-06-20T20:01:10.477Z,60.50
2019-06-20T20:03:41.887Z,62.27
2019-06-20T20:06:15.134Z,64.03
2019-06-20T20:08:46.608Z,63.20
2019-06-20T20:11:17.948Z,63.60
2019-06-20T20:13:50.245Z,63.30
2019-06-20T20:16:22.506Z,63.83
2019-06-20T20:18:54.447Z,63.79
2019-06-20T20:21:26.529Z,63.85
2019-06-20T20:23:59.121Z,64.98
2019-06-20T20:26:31.847Z,64.34
2019-06-20T20:29:03.511Z,65.81
2019-06-20T20:31:35.148Z,67.17
2019-06-20T20:34:07.562Z,68.60
2019-06-20T20:36:41.153Z,68.66
2019-06-20T20:39:12.649Z,67.03
2019-06-20T20:44:46.674Z,69.52
2019-06-20T20:47:20.864Z,68.08
2019-06-20T20:56:16.814Z,68.80
2019-06-20T20:58:48.334Z,69.83
2019-06-20T21:01:29.333Z,69.74
2019-06-20T21:04:01.361Z,69.79
2019-06-20T21:06:32.489Z,69.44
2019-06-20T21:09:03.659Z,69.95
2019-06-20T21:11:35.737Z,70.72
2019-06-20T21:14:06.922Z,71.53
2019-06-20T21:16:38.159Z,71.92
2019-06-20T21:19:10.207Z,72.56
2019-06-20T21:21:41.339Z,72.50
2019-06-20T21:24:14.050Z,71.74
2019-06-20T21:26:49.564Z,70.64
2019-06-20T21:29:18.351Z,70.79
2019-06-20T21:31:49.468Z,70.97
2019-06-20T21:34:20.612Z,70.37
2019-06-20T21:36:51.741Z,70.59
2019-06-20T21:39:22.951Z,70.87
2019-06-20T21:41:54.075Z,72.61
2019-06-20T21:44:25.242Z,73.21
2019-06-20T21:46:56.378Z,72.95
2019-06-20T21:49:27.532Z,73.47
2019-06-20T21:51:58.665Z,73.45
2019-06-20T21:54:29.939Z,73.65
2019-06-20T21:57:01.064Z,74.41
2019-06-20T21:59:32.320Z,74.85
2019-06-20T22:02:03.563Z,74.50
2019-06-20T22:04:34.691Z,74.35
2019-06-20T22:07:05.922Z,74.50
2019-06-20T22:09:37.204Z,74.32
2019-06-20T22:12:08.331Z,75.25
2019-06-20T22:14:39.578Z,75.20
2019-06-20T22:17:10.727Z,74.67
2019-06-20T22:19:41.868Z,74.97
2019-06-20T22:22:13.000Z,75.41
2019-06-20T22:24:44.092Z,75.79
2019-06-20T22:27:15.209Z,75.84
2019-06-20T22:29:46.346Z,76.22
2019-06-20T22:32:17.511Z,76.46
2019-06-20T22:34:48.589Z,76.77
2019-06-20T22:37:19.713Z,76.36
2019-06-20T22:39:50.872Z,76.41
2019-06-20T22:42:22.127Z,76.36
2019-06-20T22:44:53.212Z,76.07
2019-06-20T22:47:24.528Z,76.44
2019-06-20T22:49:55.604Z,76.93
2019-06-20T22:52:26.858Z,77.17
2019-06-20T22:54:57.937Z,77.37
2019-06-20T22:57:29.217Z,77.31
2019-06-20T23:00:00.280Z,77.71
2019-06-20T23:02:31.984Z,77.72
2019-06-20T23:05:03.290Z,77.40
2019-06-20T23:07:34.628Z,77.19
2019-06-20T23:10:11.238Z,77.29
2019-06-20T23:12:42.288Z,77.31
2019-06-20T23:15:14.597Z,77.21
2019-06-20T23:17:45.847Z,77.14
2019-06-20T23:20:17.228Z,76.46
2019-06-20T23:22:48.525Z,76.78
2019-06-20T23:25:19.945Z,76.38
2019-06-20T23:27:51.025Z,75.87
2019-06-20T23:30:24.311Z,75.97
2019-06-20T23:32:55.393Z,76.68
2019-06-20T23:35:26.716Z,77.89
2019-06-20T23:37:57.820Z,77.17
2019-06-20T23:40:29.028Z,77.24
2019-06-20T23:43:00.814Z,77.25
2019-06-20T23:45:31.928Z,77.12
2019-06-20T23:48:03.009Z,77.44
2019-06-20T23:50:34.141Z,77.90
2019-06-20T23:53:05.009Z,77.67
2019-06-20T23:55:36.437Z,77.35
2019-06-20T23:58:07.526Z,77.86
